DAL2412 KIAH-KBOS
Flight info
| Callsign | DAL2412 |
|---|---|
| Flight time | N/A |
| Altitude | 37000 |
| Route | MMUGS4 GUSTI Q22 RBV Q419 JFK ROBUC3 |
| Aircraft | A319/M-SDE3FGHIRWY/LB1 |
Departure
| Time | 2025-09-05 06:25 |
|---|---|
| Airport | George Bush Intercontinental Airport (KIAH) |
Arrival
| Time | N/A |
|---|---|
| Airport | Boston Logan International Airport (KBOS) |
| Time | Latitude | Longitude | Altitude | Speed | Heading |
|---|---|---|---|---|---|
| 2025-09-05 06:14 | 29.98542 | -95.34060 | 100 ft | 0 kts | 2° |
| 2025-09-05 06:16 | 29.98499 | -95.34056 | 100 ft | 3 kts | 356° |
| 2025-09-05 06:16 | 29.98481 | -95.34054 | 98 ft | 3 kts | 356° |
| 2025-09-05 06:17 | 29.98445 | -95.34046 | 99 ft | 3 kts | 336° |
| 2025-09-05 06:17 | 29.98429 | -95.34038 | 100 ft | 0 kts | 336° |
| 2025-09-05 06:18 | 29.98420 | -95.34091 | 99 ft | 15 kts | 215° |
| 2025-09-05 06:18 | 29.98383 | -95.34225 | 99 ft | 20 kts | 263° |
| 2025-09-05 06:19 | 29.98326 | -95.34677 | 99 ft | 17 kts | 270° |
| 2025-09-05 06:19 | 29.98325 | -95.34806 | 99 ft | 16 kts | 269° |
| 2025-09-05 06:20 | 29.98321 | -95.35152 | 99 ft | 13 kts | 256° |
| 2025-09-05 06:21 | 29.98322 | -95.35283 | 100 ft | 16 kts | 321° |
| 2025-09-05 06:21 | 29.98657 | -95.35493 | 100 ft | 31 kts | 331° |
| 2025-09-05 06:22 | 29.98832 | -95.35666 | 101 ft | 0 kts | 246° |
| 2025-09-05 06:22 | 29.98829 | -95.35672 | 99 ft | 5 kts | 246° |
| 2025-09-05 06:23 | 29.98698 | -95.35734 | 104 ft | 17 kts | 152° |
| 2025-09-05 06:23 | 29.97884 | -95.35235 | 103 ft | 124 kts | 152° |
| 2025-09-05 06:24 | 29.96109 | -95.33957 | 603 ft | 179 kts | 126° |
| 2025-09-05 06:24 | 29.96394 | -95.30982 | 1036 ft | 206 kts | 47° |
| 2025-09-05 06:25 | 29.98067 | -95.28400 | 2145 ft | 205 kts | 68° |
| 2025-09-05 06:25 | 29.98898 | -95.25200 | 3556 ft | 214 kts | 71° |
| 2025-09-05 06:26 | 30.00638 | -95.22441 | 4869 ft | 218 kts | 58° |
| 2025-09-05 06:26 | 30.02057 | -95.19323 | 6235 ft | 221 kts | 65° |
| 2025-09-05 06:27 | 30.04157 | -95.16655 | 7251 ft | 235 kts | 32° |
| 2025-09-05 06:27 | 30.05558 | -95.15672 | 7855 ft | 237 kts | 30° |
| 2025-09-05 06:27 | 30.08473 | -95.13779 | 8861 ft | 253 kts | 28° |
| 2025-09-05 06:28 | 30.13474 | -95.10297 | 10152 ft | 304 kts | 36° |